createdAt,value
2023-01-21T00:04:34.678Z,9.02
2023-01-21T00:11:36.602Z,11.30
2023-01-21T00:18:38.531Z,8.80
2023-01-21T00:25:41.933Z,5.85
2023-01-21T00:32:43.818Z,8.13
2023-01-21T00:39:45.783Z,14.98
2023-01-21T00:46:47.704Z,8.10
2023-01-21T00:53:49.727Z,4.75
2023-01-21T01:00:51.683Z,6.68
2023-01-21T01:07:53.920Z,5.60
2023-01-21T01:14:55.867Z,6.38
2023-01-21T01:21:57.888Z,7.53
2023-01-21T01:29:00.731Z,8.70
2023-01-21T01:36:08.150Z,5.70
2023-01-21T01:43:53.258Z,5.80
2023-01-21T01:50:58.500Z,6.72
2023-01-21T01:58:01.426Z,5.97
2023-01-21T02:05:05.398Z,5.20
2023-01-21T02:12:07.539Z,3.78
2023-01-21T02:19:37.232Z,5.10
2023-01-21T02:26:44.934Z,3.72
2023-01-21T02:34:09.096Z,5.10
2023-01-21T02:41:22.661Z,5.00
2023-01-21T02:48:59.149Z,5.45
2023-01-21T02:56:13.443Z,5.68
2023-01-21T03:03:26.468Z,3.40
2023-01-21T03:10:51.057Z,4.47
2023-01-21T03:17:54.866Z,3.83
2023-01-21T03:24:58.092Z,4.63
2023-01-21T03:32:04.788Z,4.18
2023-01-21T03:39:22.212Z,4.10
2023-01-21T03:47:01.859Z,3.83
2023-01-21T03:54:03.987Z,3.67
2023-01-21T04:01:07.395Z,4.35
2023-01-21T04:08:09.446Z,4.15
2023-01-21T04:15:11.840Z,4.07
2023-01-21T04:22:14.127Z,3.40
2023-01-21T04:29:17.353Z,2.92
2023-01-21T04:36:19.432Z,2.85
2023-01-21T04:43:21.572Z,2.83
2023-01-21T04:50:23.660Z,3.92
2023-01-21T04:57:25.634Z,3.35
2023-01-21T05:04:28.720Z,3.08
2023-01-21T05:11:30.786Z,3.42
2023-01-21T05:18:32.780Z,3.42
2023-01-21T05:25:34.739Z,3.05
2023-01-21T05:32:38.372Z,3.45
2023-01-21T05:39:40.467Z,4.25
2023-01-21T05:46:42.661Z,3.13
2023-01-21T05:53:45.074Z,3.13
2023-01-21T06:00:48.848Z,2.85
2023-01-21T06:07:51.925Z,3.17
2023-01-21T06:14:54.414Z,3.40
2023-01-21T06:21:56.435Z,2.50
2023-01-21T06:28:58.661Z,3.13
2023-01-21T06:36:01.062Z,3.33
2023-01-21T06:43:03.058Z,2.85
2023-01-21T06:50:05.473Z,3.10
2023-01-21T06:57:07.561Z,3.65
2023-01-21T07:04:09.590Z,2.85
2023-01-21T07:11:11.523Z,3.70
2023-01-21T07:18:13.707Z,3.33
2023-01-21T07:25:16.010Z,3.90
2023-01-21T07:32:18.230Z,3.55
2023-01-21T07:39:20.236Z,3.45
2023-01-21T07:46:23.487Z,3.88
2023-01-21T07:53:25.651Z,4.13
2023-01-21T08:00:27.930Z,3.50
2023-01-21T08:07:30.292Z,7.80
2023-01-21T08:14:32.690Z,4.35
2023-01-21T08:21:34.764Z,4.40
2023-01-21T08:28:37.973Z,3.88
2023-01-21T08:35:40.052Z,3.28
2023-01-21T08:42:42.268Z,3.30
2023-01-21T08:49:44.721Z,4.10
2023-01-21T08:56:47.035Z,3.15
2023-01-21T09:03:49.086Z,3.33
2023-01-21T09:11:03.034Z,3.80
2023-01-21T09:18:05.261Z,3.35
2023-01-21T09:25:10.453Z,4.25
2023-01-21T09:32:12.525Z,5.40
2023-01-21T09:39:14.459Z,8.05
2023-01-21T09:46:29.812Z,7.35
2023-01-21T09:53:53.342Z,6.20
2023-01-21T10:01:07.659Z,8.60
2023-01-21T10:08:34.301Z,10.38
2023-01-21T10:15:54.880Z,7.05
2023-01-21T10:23:04.830Z,11.90
2023-01-21T10:30:36.241Z,10.70
2023-01-21T10:38:05.709Z,11.68
2023-01-21T10:45:25.243Z,10.13
2023-01-21T10:52:48.972Z,9.35
2023-01-21T10:59:51.609Z,10.73
2023-01-21T11:07:04.981Z,14.63
2023-01-21T11:14:06.933Z,9.90
2023-01-21T11:21:22.732Z,9.73
2023-01-21T11:28:27.141Z,13.63
2023-01-21T11:35:29.072Z,12.18
2023-01-21T11:42:31.203Z,14.10
2023-01-21T11:49:33.602Z,14.52
2023-01-21T11:56:37.037Z,12.00
2023-01-21T12:03:46.319Z,12.18
2023-01-21T12:10:48.280Z,16.65
2023-01-21T12:18:00.611Z,22.17
2023-01-21T12:25:06.738Z,15.88
2023-01-21T12:32:47.623Z,12.80
2023-01-21T12:39:56.487Z,16.48
2023-01-21T12:47:09.505Z,24.95
2023-01-21T12:54:24.766Z,14.90
2023-01-21T13:01:59.846Z,14.65
2023-01-21T13:09:13.607Z,18.20
2023-01-21T13:16:23.861Z,11.32
2023-01-21T13:23:37.585Z,17.85
2023-01-21T13:30:54.823Z,15.52
2023-01-21T13:38:40.163Z,16.15
2023-01-21T13:45:57.787Z,14.98
2023-01-21T13:53:45.373Z,16.52
2023-01-21T14:01:07.170Z,20.38
2023-01-21T14:08:27.978Z,14.50
2023-01-21T14:15:52.993Z,19.90
2023-01-21T14:23:22.580Z,19.10
2023-01-21T14:30:39.663Z,17.77
2023-01-21T14:38:01.084Z,16.75
2023-01-21T14:45:18.153Z,27.55
2023-01-21T14:52:33.309Z,23.27
2023-01-21T15:07:20.621Z,18.23
2023-01-21T15:14:27.943Z,19.27
2023-01-21T15:21:45.569Z,18.05
2023-01-21T15:29:01.226Z,18.83
2023-01-21T15:36:08.589Z,18.40
2023-01-21T15:44:03.436Z,15.85
2023-01-21T15:51:42.153Z,23.88
2023-01-21T15:58:47.626Z,19.15
2023-01-21T16:06:19.757Z,15.07
2023-01-21T16:13:40.510Z,20.63
2023-01-21T16:20:53.498Z,21.52
2023-01-21T16:28:03.862Z,17.38
2023-01-21T16:35:07.423Z,17.85
2023-01-21T16:42:36.541Z,22.83
2023-01-21T16:49:43.349Z,17.33
2023-01-21T16:56:50.515Z,22.23
2023-01-21T17:03:53.214Z,26.13
2023-01-21T17:11:05.111Z,18.38
2023-01-21T17:18:25.203Z,17.77
2023-01-21T17:25:27.839Z,14.27
2023-01-21T17:32:34.530Z,19.58
2023-01-21T17:39:56.162Z,21.45
2023-01-21T17:47:03.858Z,20.33
2023-01-21T17:54:07.451Z,21.67
2023-01-21T18:01:12.440Z,15.93
2023-01-21T18:08:16.150Z,19.65
2023-01-21T18:15:20.827Z,25.92
2023-01-21T18:22:32.108Z,16.00
2023-01-21T18:29:35.558Z,25.50
2023-01-21T18:36:39.959Z,21.50
2023-01-21T18:43:42.754Z,20.45
2023-01-21T18:50:45.330Z,18.50
2023-01-21T18:57:50.161Z,20.48
2023-01-21T19:04:52.708Z,30.60
2023-01-21T19:11:55.119Z,18.92
2023-01-21T19:18:57.692Z,23.02
2023-01-21T19:26:00.234Z,28.77
2023-01-21T19:33:02.714Z,23.17
2023-01-21T19:40:15.221Z,21.90
2023-01-21T19:47:21.271Z,17.25
2023-01-21T19:54:43.454Z,17.45
2023-01-21T20:01:56.809Z,24.55
2023-01-21T20:09:09.612Z,21.67
2023-01-21T20:16:27.550Z,22.83
2023-01-21T20:23:38.143Z,24.88
2023-01-21T20:30:43.282Z,19.90
2023-01-21T20:37:55.733Z,24.67
2023-01-21T20:45:03.335Z,20.30
2023-01-21T20:52:12.846Z,27.75
2023-01-21T20:59:17.527Z,26.63
2023-01-21T21:06:34.630Z,17.55
2023-01-21T21:13:43.002Z,21.55
2023-01-21T21:20:47.448Z,22.08
2023-01-21T21:27:54.293Z,19.05
2023-01-21T21:34:59.287Z,18.77
2023-01-21T21:42:22.809Z,15.75
2023-01-21T21:49:28.046Z,12.98
2023-01-21T21:56:33.814Z,18.08
2023-01-21T22:03:40.735Z,15.15
2023-01-21T22:10:45.006Z,18.58
2023-01-21T22:17:47.741Z,16.77
2023-01-21T22:24:49.739Z,16.73
2023-01-21T22:31:52.692Z,16.70
2023-01-21T22:38:54.920Z,23.02
2023-01-21T22:45:58.314Z,17.45
2023-01-21T22:53:00.384Z,15.68
2023-01-21T23:00:02.716Z,16.60
2023-01-21T23:07:04.865Z,17.25
2023-01-21T23:14:09.069Z,16.20
2023-01-21T23:21:15.212Z,13.80
2023-01-21T23:28:17.920Z,11.93
2023-01-21T23:35:19.959Z,13.45
2023-01-21T23:42:23.845Z,15.07
2023-01-21T23:49:25.849Z,11.18
2023-01-21T23:56:27.880Z,15.23
